Latest Weather Observations for Nambour

IDQ60801

Issued at 5:02 pm EST Tuesday 4 August 2015 (issued every 30 minutes, with the page automatically refreshed every 10 minutes)

About weather observations | Map of weather stations | Latest weather observations for QLD | Other Formats
Station Details ID: 040988 Name: NAMBOUR DAFF - HILLSIDE Lat: -26.64 Lon: 152.94 Height: 53.24 m
Data from the previous 72 hours. | See also: Recent months at Nambour
Date/Time
EST
Temp
°C
App
Temp
°C
Dew
Point
Rel
Hum
%
Delta-T
°C
Wind Press
QNH
hPa
Press
MSL
hPa
Rain
since 9 am
mm
Dir
 
Spd
km/h
Gust
km/h
Spd
kts
Gust
kts
04/05:00pm 17.8 18.0 10.7 63 3.8 CALM 0 6 0 3 1016.9 1016.8 0.0
04/04:30pm 18.4 17.9 10.8 61 4.1 ESE 4 9 2 5 1016.9 1016.8 0.0
04/04:00pm 18.8 17.7 9.8 56 4.8 ESE 6 13 3 7 1016.7 1016.6 0.0
04/03:30pm 19.7 18.8 10.7 56 4.9 ESE 6 13 3 7 1016.6 1016.5 0.0
04/03:00pm 20.2 19.7 10.6 54 5.2 ESE 4 13 2 7 1016.7 1016.6 0.0
04/02:30pm 20.5 19.6 10.6 53 5.4 ESE 6 13 3 7 1016.9 1016.8 0.0
04/02:00pm 20.1 19.1 10.2 53 5.3 WSW 6 9 3 5 1017.2 1017.1 0.0
04/01:30pm 20.4 19.2 10.2 52 5.5 SE 7 15 4 8 1017.3 1017.2 0.0
04/01:00pm 19.9 18.9 10.9 56 4.9 ESE 7 13 4 7 1017.7 1017.7 0.0
04/12:30pm 19.8 18.9 10.8 56 4.9 ESE 6 13 3 7 1018.0 1018.0 0.0
04/12:00pm 19.6 18.6 10.3 55 5.0 S 6 11 3 6 1018.3 1018.3 0.0
04/11:30am 20.1 19.1 10.2 53 5.3 S 6 13 3 7 1018.7 1018.7 0.0
04/11:00am 19.5 18.3 9.4 52 5.3 SSW 6 17 3 9 1019.1 1019.1 0.0
04/10:30am 19.4 18.7 9.9 54 5.1 SW 4 9 2 5 1019.4 1019.4 0.0
04/10:00am 19.8 18.9 10.5 55 5.0 E 6 13 3 7 1019.5 1019.5 0.0
04/09:30am 19.3 18.0 9.2 52 5.3 WSW 6 20 3 11 1019.4 1019.4 0.0
04/09:00am 18.3 17.0 9.1 55 4.8 SSW 6 11 3 6 1019.3 1019.3 0.0
04/08:30am 18.3 17.4 9.1 55 4.8 WSW 4 11 2 6 1019.0 1019.0 0.0
04/08:00am 17.7 17.1 8.8 56 4.6 WSW 2 7 1 4 1018.6 1018.6 0.0
04/07:30am 16.7 16.0 8.4 58 4.2 ENE 2 7 1 4 1018.5 1018.5 0.0
04/07:00am 14.7 14.3 8.2 65 3.3 CALM 0 4 0 2 1018.2 1018.2 0.0
04/06:30am 14.2 13.7 7.9 66 3.1 CALM 0 0 0 0 1018.1 1018.1 0.0
04/06:00am 14.4 13.8 7.2 62 3.5 CALM 0 0 0 0 1017.8 1017.8 0.0
04/05:30am 15.4 13.1 5.0 50 4.9 SW 6 9 3 5 1017.6 1017.6 0.0
04/05:00am 15.3 13.8 5.2 51 4.8 SW 2 6 1 3 1017.4 1017.4 0.0
04/04:30am 15.4 13.9 6.7 56 4.3 WSW 4 6 2 3 1017.1 1017.0 0.0
04/04:00am 16.4 15.0 5.4 48 5.3 WSW 2 7 1 4 1017.0 1016.9 0.0
04/03:30am 16.8 14.5 5.7 48 5.4 WNW 7 13 4 7 1016.6 1016.5 0.0
04/03:00am 15.9 14.2 7.4 57 4.2 W 6 7 3 4 1016.4 1016.3 0.0
04/02:30am 16.1 14.6 8.3 60 4.0 SW 6 9 3 5 1016.6 1016.5 0.0
04/02:00am 15.9 14.6 9.3 65 3.4 SSW 6 7 3 4 1016.6 1016.5 0.0
04/01:30am 15.2 15.2 9.8 70 2.8 CALM 0 0 0 0 1016.6 1016.5 0.0
04/01:00am 17.1 15.7 8.8 58 4.3 WSW 6 9 3 5 1016.8 1016.7 0.0
04/12:30am 16.7 16.4 10.1 65 3.5 WNW 2 4 1 2 1016.9 1016.8 0.0
04/12:00am 16.2 15.9 11.4 73 2.6 WSW 4 7 2 4 1016.9 1016.8 0.0
 
Date/Time
EST
Temp
°C
App
Temp
°C
Dew
Point
Rel
Hum
%
Delta-T
°C
Wind Press
QNH
hPa
Press
MSL
hPa
Rain
since 9 am
mm
Dir
 
Spd
km/h
Gust
km/h
Spd
kts
Gust
kts
03/11:30pm 15.5 16.1 11.9 79 2.0 CALM 0 0 0 0 1016.8 1016.7 0.0
03/11:00pm 15.9 15.4 11.9 77 2.2 WSW 6 9 3 5 1016.6 1016.5 0.0
03/10:30pm 18.7 18.1 11.8 64 3.8 WSW 6 11 3 6 1016.8 1016.7 0.0
03/10:00pm 17.7 18.7 13.2 75 2.5 CALM 0 0 0 0 1016.9 1016.8 0.0
03/09:30pm 18.4 19.5 13.5 73 2.8 CALM 0 0 0 0 1017.1 1017.0 0.0
03/09:00pm 18.7 19.5 12.7 68 3.4 CALM 0 2 0 1 1016.9 1016.8 0.0
03/08:30pm 19.2 19.4 12.9 67 3.6 NW 4 7 2 4 1016.9 1016.8 0.0
03/08:00pm 18.8 19.9 13.4 71 3.1 CALM 0 0 0 0 1016.9 1016.8 0.0
03/07:30pm 20.0 20.2 14.1 69 3.4 SSW 6 17 3 9 1016.8 1016.7 0.0
03/07:00pm 18.5 19.8 14.0 75 2.6 CALM 0 0 0 0 1016.0 1015.9 0.0
03/06:30pm 19.7 20.9 13.9 69 3.3 CALM 0 0 0 0 1015.8 1015.7 0.0
03/06:00pm 21.2 21.7 13.9 63 4.2 NW 4 6 2 3 1015.6 1015.5 0.0
03/05:30pm 22.4 22.8 12.6 54 5.6 WNW 2 4 1 2 1015.2 1015.1 0.0
03/05:00pm 23.8 23.8 12.4 48 6.5 N 4 7 2 4 1015.0 1014.9 0.0
03/04:30pm 24.9 24.3 12.2 45 7.3 NNE 7 15 4 8 1014.9 1014.8 0.0
03/04:00pm 25.6 24.8 12.8 45 7.4 NE 9 15 5 8 1014.7 1014.6 0.0
03/03:30pm 26.2 25.5 11.9 41 8.2 N 7 13 4 7 1014.9 1014.8 0.0
03/03:00pm 26.2 25.2 12.3 42 8.0 NNE 9 13 5 7 1015.0 1014.9 0.0
03/02:30pm 26.0 25.3 12.1 42 8.0 N 7 15 4 8 1015.1 1015.0 0.0
03/02:00pm 26.4 26.1 12.8 43 7.9 NNW 6 11 3 6 1015.3 1015.2 0.0
03/01:30pm 25.9 25.2 13.1 45 7.5 N 9 15 5 8 1015.7 1015.6 0.0
03/01:00pm 25.1 25.0 13.9 49 6.6 N 7 13 4 7 1016.2 1016.1 0.0
03/12:30pm 24.4 23.5 13.6 51 6.3 N 11 19 6 10 1016.7 1016.6 0.0
03/12:00pm 23.6 22.6 13.5 53 5.9 N 11 17 6 9 1017.4 1017.4 0.0
03/11:30am 23.0 21.6 13.5 55 5.5 N 13 20 7 11 1018.0 1018.0 0.0
03/11:00am 22.2 20.5 13.5 57 5.0 N 15 22 8 12 1018.6 1018.6 0.0
03/10:30am 21.9 19.9 14.0 61 4.6 N 17 26 9 14 1019.3 1019.3 0.0
03/10:00am 21.5 20.7 13.9 62 4.4 NNW 11 22 6 12 1019.6 1019.6 0.0
03/09:30am 20.8 19.6 14.0 65 3.9 N 13 26 7 14 1019.6 1019.6 0.0
03/09:00am 20.2 19.0 13.9 67 3.6 NNE 13 22 7 12 1019.6 1019.6 0.0
03/08:30am 19.4 18.7 14.2 72 3.0 NNE 11 19 6 10 1019.6 1019.6 0.0
03/08:00am 18.5 17.7 14.0 75 2.6 NNE 11 20 6 11 1019.4 1019.4 0.0
03/07:30am 17.5 17.4 14.0 80 2.0 NNE 7 11 4 6 1019.2 1019.2 0.0
03/07:00am 16.6 16.6 13.7 83 1.6 N 6 13 3 7 1019.2 1019.2 0.0
03/06:30am 15.8 15.9 13.8 88 1.1 N 6 9 3 5 1019.1 1019.1 0.0
03/06:00am 15.8 15.9 14.0 89 1.0 N 6 11 3 6 1018.8 1018.8 0.0
03/05:30am 15.4 16.2 13.8 90 0.9 N 2 6 1 3 1018.8 1018.8 0.0
03/05:00am 15.3 15.7 13.7 90 0.9 NNE 4 6 2 3 1018.6 1018.6 0.0
03/04:30am 15.0 15.9 12.9 87 1.2 CALM 0 2 0 1 1018.5 1018.5 0.0
03/04:00am 14.8 15.4 13.2 90 0.9 NE 2 7 1 4 1018.5 1018.5 0.0
03/03:30am 14.6 14.7 12.6 88 1.1 E 4 6 2 3 1018.6 1018.6 0.0
03/03:00am 14.4 14.0 12.4 88 1.1 ESE 6 7 3 4 1018.8 1018.8 0.0
03/02:30am 14.7 15.1 12.4 86 1.3 E 2 4 1 2 1019.0 1019.0 0.0
03/02:00am 14.4 15.0 11.9 85 1.3 CALM 0 0 0 0 1019.2 1019.2 0.0
03/01:30am 14.3 14.5 11.8 85 1.3 N 2 4 1 2 1019.6 1019.6 0.0
03/01:00am 14.1 14.6 11.6 85 1.3 CALM 0 4 0 2 1020.0 1020.0 0.0
03/12:30am 14.3 14.9 11.8 85 1.3 CALM 0 4 0 2 1020.2 1020.2 0.0
03/12:00am 14.3 13.9 11.1 81 1.7 NNW 4 9 2 5 1020.3 1020.3 0.0
 
Date/Time
EST
Temp
°C
App
Temp
°C
Dew
Point
Rel
Hum
%
Delta-T
°C
Wind Press
QNH
hPa
Press
MSL
hPa
Rain
since 9 am
mm
Dir
 
Spd
km/h
Gust
km/h
Spd
kts
Gust
kts
02/11:30pm 13.8 14.2 11.1 84 1.4 CALM 0 4 0 2 1020.3 1020.3 0.0
02/11:00pm 15.1 14.6 11.9 81 1.7 NW 6 7 3 4 1020.5 1020.5 0.0
02/10:30pm 13.2 13.8 11.8 91 0.7 CALM 0 0 0 0 1020.6 1020.6 0.0
02/10:00pm 13.2 13.9 12.1 93 0.6 CALM 0 0 0 0 1020.7 1020.7 0.0
02/09:30pm 13.6 14.2 11.8 89 1.0 CALM 0 0 0 0 1020.6 1020.6 0.0
02/09:00pm 14.7 15.2 11.7 82 1.6 CALM 0 0 0 0 1020.7 1020.7 0.0
02/08:30pm 14.5 15.4 12.9 90 0.9 CALM 0 0 0 0 1020.6 1020.6 0.0
02/08:00pm 15.1 16.2 13.5 90 0.9 CALM 0 0 0 0 1020.8 1020.8 0.0
02/07:30pm 15.2 16.0 12.5 84 1.5 CALM 0 0 0 0 1020.6 1020.6 0.0
02/07:00pm 16.5 17.5 13.2 81 1.8 CALM 0 0 0 0 1020.4 1020.4 0.0
02/06:30pm 17.1 18.0 13.0 77 2.3 CALM 0 0 0 0 1020.1 1020.1 0.0
02/06:00pm 17.9 18.7 12.4 70 3.0 CALM 0 0 0 0 1019.9 1019.9 0.0
02/05:30pm 19.7 19.9 12.9 65 3.8 ENE 4 6 2 3 1019.7 1019.7 0.0
02/05:00pm 22.2 22.5 11.0 49 6.2 CALM 0 4 0 2 1019.3 1019.3 0.0
02/04:30pm 23.0 21.9 10.8 46 6.8 N 7 11 4 6 1019.1 1019.1 0.0
02/04:00pm 23.5 22.6 11.2 46 6.9 N 7 13 4 7 1019.1 1019.1 0.0
02/03:30pm 23.8 22.9 11.2 45 7.1 N 7 15 4 8 1019.3 1019.3 0.0
02/03:00pm 23.4 22.3 11.8 48 6.5 N 9 15 5 8 1019.5 1019.5 0.0
02/02:30pm 23.8 21.9 10.5 43 7.4 NW 11 20 6 11 1019.8 1019.8 0.0
02/02:00pm 23.8 21.5 10.5 43 7.3 NNW 13 22 7 12 1020.1 1020.1 0.0
02/01:30pm 24.8 23.5 12.4 46 7.1 NNW 11 20 6 11 1020.4 1020.4 0.0
02/01:00pm 24.0 22.3 12.3 48 6.7 NW 13 24 7 13 1020.8 1020.8 0.0
02/12:30pm 23.2 21.4 12.2 50 6.3 N 13 19 7 10 1021.2 1021.2 0.0
02/12:00pm 23.0 21.7 12.6 52 5.9 NNW 11 24 6 13 1021.9 1021.9 0.0
02/11:30am 22.6 21.1 13.1 55 5.5 NNW 13 20 7 11 1022.5 1022.5 0.0
02/11:00am 22.4 21.2 12.9 55 5.4 NNW 11 20 6 11 1022.8 1022.8 0.0
02/10:30am 21.7 20.1 12.8 57 5.1 N 13 17 7 9 1023.1 1023.1 0.0
02/10:00am 21.2 19.6 12.9 59 4.7 N 13 20 7 11 1023.3 1023.3 0.0
02/09:30am 20.9 20.1 12.8 60 4.6 NNW 9 15 5 8 1023.3 1023.3 0.0
02/09:00am 20.1 19.6 12.8 63 4.1 NNW 7 13 4 7 1023.5 1023.5 0.2
02/08:30am 17.8 18.2 13.7 77 2.3 N 4 9 2 5 1023.5 1023.5 0.2
02/08:00am 14.4 15.4 13.3 93 0.6 CALM 0 0 0 0 1023.6 1023.6 0.2
02/07:30am 11.7 12.1 11.1 96 0.3 CALM 0 0 0 0 1023.5 1023.5 0.2
02/07:00am 10.4 10.4 9.9 97 0.3 CALM 0 0 0 0 1023.2 1023.2 0.0
02/06:30am 9.7 9.5 9.2 97 0.2 CALM 0 0 0 0 1022.8 1022.8 0.0
02/06:00am 9.7 9.5 9.2 97 0.2 CALM 0 0 0 0 1022.6 1022.6 0.0
02/05:30am 10.4 10.4 9.9 97 0.3 CALM 0 0 0 0 1022.5 1022.5 0.0
02/05:00am 9.8 9.7 9.3 97 0.2 CALM 0 0 0 0 1022.3 1022.3 0.0
02/04:30am 10.6 10.7 10.1 97 0.3 CALM 0 0 0 0 1022.3 1022.3 0.0
02/04:00am 10.4 10.4 9.8 96 0.3 CALM 0 0 0 0 1022.1 1022.1 0.0
02/03:30am 10.8 10.9 10.3 97 0.3 CALM 0 0 0 0 1022.2 1022.2 0.0
02/03:00am 10.7 10.8 10.1 96 0.3 CALM 0 0 0 0 1022.4 1022.4 0.0
02/02:30am 10.2 10.0 9.1 93 0.5 CALM 0 0 0 0 1022.3 1022.3 0.0
02/02:00am 10.4 10.3 9.3 93 0.5 CALM 0 0 0 0 1022.5 1022.5 0.0
02/01:30am 11.2 11.3 10.3 94 0.5 CALM 0 0 0 0 1022.8 1022.8 0.0
02/01:00am 10.8 10.7 9.4 91 0.7 CALM 0 0 0 0 1023.0 1023.0 0.0
02/12:30am 11.9 12.2 11.0 94 0.5 CALM 0 0 0 0 1023.1 1023.1 0.0
02/12:00am 11.0 10.9 9.6 91 0.7 CALM 0 0 0 0 1023.2 1023.2 0.0
 
Date/Time
EST
Temp
°C
App
Temp
°C
Dew
Point
Rel
Hum
%
Delta-T
°C
Wind Press
QNH
hPa
Press
MSL
hPa
Rain
since 9 am
mm
Dir
 
Spd
km/h
Gust
km/h
Spd
kts
Gust
kts
01/11:30pm 11.6 11.8 10.5 93 0.6 CALM 0 0 0 0 1023.4 1023.4 0.0
01/11:00pm 11.5 11.7 10.6 94 0.5 CALM 0 0 0 0 1023.6 1023.6 0.0
01/10:30pm 12.2 12.6 11.3 94 0.5 CALM 0 0 0 0 1023.5 1023.5 0.0
01/10:00pm 12.5 12.9 11.4 93 0.6 CALM 0 0 0 0 1023.5 1023.5 0.0
01/09:30pm 13.0 13.4 11.4 90 0.8 CALM 0 0 0 0 1023.4 1023.4 0.0
01/09:00pm 13.0 13.4 11.4 90 0.8 CALM 0 0 0 0 1023.3 1023.3 0.0
01/08:30pm 13.2 13.6 11.4 89 1.0 CALM 0 0 0 0 1023.1 1023.1 0.0
01/08:00pm 13.3 13.5 10.7 84 1.4 CALM 0 0 0 0 1022.9 1022.9 0.0
01/07:30pm 13.9 14.1 10.5 80 1.8 CALM 0 0 0 0 1022.7 1022.7 0.0
01/07:00pm 15.8 15.9 11.6 76 2.3 W 2 4 1 2 1022.6 1022.6 0.0
01/06:30pm 16.0 16.3 11.0 72 2.7 CALM 0 4 0 2 1022.3 1022.3 0.0
01/06:00pm 16.8 17.4 11.9 73 2.7 CALM 0 0 0 0 1021.9 1021.9 0.0
01/05:30pm 18.4 18.2 11.7 65 3.7 NE 4 6 2 3 1021.6 1021.6 0.0

Other Formats:

Comma delimited format used in spreadsheet applications
http://www.bom.gov.au/fwo/IDQ60801/IDQ60801.95572.axf

JavaScript Object Notation format (JSON) in row-major order
http://www.bom.gov.au/fwo/IDQ60801/IDQ60801.95572.json